sensor_id;sensor_type;location;lat;lon;timestamp;P1;durP1;ratioP1;P2;durP2;ratioP2
21771;SDS011;11047;47.904;8.110;2023-04-07T00:00:24;5.47;;;3.28;;
21771;SDS011;11047;47.904;8.110;2023-04-07T00:02:52;7.45;;;3.10;;
21771;SDS011;11047;47.904;8.110;2023-04-07T00:05:20;3.88;;;3.03;;
21771;SDS011;11047;47.904;8.110;2023-04-07T00:07:47;5.20;;;3.05;;
21771;SDS011;11047;47.904;8.110;2023-04-07T00:10:14;4.97;;;3.40;;
21771;SDS011;11047;47.904;8.110;2023-04-07T00:12:40;6.35;;;3.63;;
21771;SDS011;11047;47.904;8.110;2023-04-07T00:15:08;4.93;;;3.25;;
21771;SDS011;11047;47.904;8.110;2023-04-07T00:17:35;5.47;;;2.92;;
21771;SDS011;11047;47.904;8.110;2023-04-07T00:20:02;4.53;;;3.03;;
21771;SDS011;11047;47.904;8.110;2023-04-07T00:22:31;5.10;;;2.80;;
21771;SDS011;11047;47.904;8.110;2023-04-07T00:24:57;3.45;;;2.50;;
21771;SDS011;11047;47.904;8.110;2023-04-07T00:27:24;3.60;;;3.00;;
21771;SDS011;11047;47.904;8.110;2023-04-07T00:29:51;4.65;;;3.22;;
21771;SDS011;11047;47.904;8.110;2023-04-07T00:32:19;3.95;;;3.28;;
21771;SDS011;11047;47.904;8.110;2023-04-07T00:34:46;3.83;;;3.05;;
21771;SDS011;11047;47.904;8.110;2023-04-07T00:37:13;6.25;;;3.10;;
21771;SDS011;11047;47.904;8.110;2023-04-07T00:39:41;4.82;;;3.33;;
21771;SDS011;11047;47.904;8.110;2023-04-07T00:42:08;5.45;;;3.10;;
21771;SDS011;11047;47.904;8.110;2023-04-07T00:44:35;4.07;;;2.85;;
21771;SDS011;11047;47.904;8.110;2023-04-07T00:47:02;5.35;;;2.83;;
21771;SDS011;11047;47.904;8.110;2023-04-07T00:49:29;3.63;;;2.83;;
21771;SDS011;11047;47.904;8.110;2023-04-07T00:51:56;3.17;;;2.30;;
21771;SDS011;11047;47.904;8.110;2023-04-07T00:54:24;3.88;;;2.58;;
21771;SDS011;11047;47.904;8.110;2023-04-07T00:56:52;2.75;;;1.98;;
21771;SDS011;11047;47.904;8.110;2023-04-07T00:59:19;4.22;;;2.40;;
21771;SDS011;11047;47.904;8.110;2023-04-07T01:01:47;3.33;;;2.30;;
21771;SDS011;11047;47.904;8.110;2023-04-07T01:04:22;5.43;;;2.90;;
21771;SDS011;11047;47.904;8.110;2023-04-07T01:06:56;4.47;;;2.17;;
21771;SDS011;11047;47.904;8.110;2023-04-07T01:12:02;4.43;;;2.28;;
21771;SDS011;11047;47.904;8.110;2023-04-07T01:14:33;4.38;;;2.22;;
21771;SDS011;11047;47.904;8.110;2023-04-07T01:17:05;3.25;;;2.30;;
21771;SDS011;11047;47.904;8.110;2023-04-07T01:19:36;6.40;;;2.35;;
21771;SDS011;11047;47.904;8.110;2023-04-07T01:22:08;2.50;;;2.10;;
21771;SDS011;11047;47.904;8.110;2023-04-07T01:24:48;4.50;;;2.38;;
21771;SDS011;11047;47.904;8.110;2023-04-07T01:27:33;3.50;;;2.50;;
21771;SDS011;11047;47.904;8.110;2023-04-07T01:30:03;2.97;;;2.13;;
21771;SDS011;11047;47.904;8.110;2023-04-07T01:32:36;4.32;;;2.42;;
21771;SDS011;11047;47.904;8.110;2023-04-07T01:35:05;2.30;;;2.10;;
21771;SDS011;11047;47.904;8.110;2023-04-07T01:37:35;2.72;;;2.00;;
21771;SDS011;11047;47.904;8.110;2023-04-07T01:40:04;7.05;;;2.38;;
21771;SDS011;11047;47.904;8.110;2023-04-07T01:42:33;2.92;;;2.50;;
21771;SDS011;11047;47.904;8.110;2023-04-07T01:45:01;4.10;;;2.10;;
21771;SDS011;11047;47.904;8.110;2023-04-07T01:47:31;4.78;;;2.25;;
21771;SDS011;11047;47.904;8.110;2023-04-07T01:49:59;4.75;;;2.50;;
21771;SDS011;11047;47.904;8.110;2023-04-07T01:52:28;4.25;;;2.15;;
21771;SDS011;11047;47.904;8.110;2023-04-07T01:54:56;4.00;;;2.90;;
21771;SDS011;11047;47.904;8.110;2023-04-07T01:57:22;3.13;;;2.25;;
21771;SDS011;11047;47.904;8.110;2023-04-07T01:59:49;2.90;;;2.30;;
21771;SDS011;11047;47.904;8.110;2023-04-07T02:02:18;3.50;;;1.80;;
21771;SDS011;11047;47.904;8.110;2023-04-07T02:04:47;2.53;;;1.83;;
21771;SDS011;11047;47.904;8.110;2023-04-07T02:07:20;2.70;;;2.08;;
21771;SDS011;11047;47.904;8.110;2023-04-07T02:09:54;3.17;;;2.08;;
21771;SDS011;11047;47.904;8.110;2023-04-07T02:12:24;1.90;;;1.70;;
21771;SDS011;11047;47.904;8.110;2023-04-07T02:14:53;4.38;;;1.70;;
21771;SDS011;11047;47.904;8.110;2023-04-07T02:17:22;3.85;;;2.40;;
21771;SDS011;11047;47.904;8.110;2023-04-07T02:19:50;4.90;;;2.50;;
21771;SDS011;11047;47.904;8.110;2023-04-07T02:22:19;2.45;;;2.03;;
21771;SDS011;11047;47.904;8.110;2023-04-07T02:24:45;2.75;;;2.30;;
21771;SDS011;11047;47.904;8.110;2023-04-07T02:27:12;2.45;;;1.90;;
21771;SDS011;11047;47.904;8.110;2023-04-07T02:29:39;2.13;;;1.45;;
21771;SDS011;11047;47.904;8.110;2023-04-07T02:32:06;3.35;;;2.00;;
21771;SDS011;11047;47.904;8.110;2023-04-07T02:34:34;2.83;;;1.73;;
21771;SDS011;11047;47.904;8.110;2023-04-07T02:37:01;2.80;;;2.00;;
21771;SDS011;11047;47.904;8.110;2023-04-07T02:39:28;2.28;;;1.77;;
21771;SDS011;11047;47.904;8.110;2023-04-07T02:41:55;2.03;;;1.58;;
21771;SDS011;11047;47.904;8.110;2023-04-07T02:44:22;2.25;;;1.83;;
21771;SDS011;11047;47.904;8.110;2023-04-07T02:46:49;2.47;;;1.90;;
21771;SDS011;11047;47.904;8.110;2023-04-07T02:49:16;2.45;;;1.88;;
21771;SDS011;11047;47.904;8.110;2023-04-07T02:51:44;2.85;;;1.50;;
21771;SDS011;11047;47.904;8.110;2023-04-07T02:54:11;2.55;;;1.70;;
21771;SDS011;11047;47.904;8.110;2023-04-07T02:56:38;3.47;;;2.00;;
21771;SDS011;11047;47.904;8.110;2023-04-07T02:59:05;3.67;;;1.63;;
21771;SDS011;11047;47.904;8.110;2023-04-07T03:01:32;2.28;;;1.50;;
21771;SDS011;11047;47.904;8.110;2023-04-07T03:04:00;2.63;;;1.80;;
21771;SDS011;11047;47.904;8.110;2023-04-07T03:06:27;2.72;;;1.50;;
21771;SDS011;11047;47.904;8.110;2023-04-07T03:08:55;1.77;;;1.50;;
21771;SDS011;11047;47.904;8.110;2023-04-07T03:11:22;2.05;;;1.52;;
21771;SDS011;11047;47.904;8.110;2023-04-07T03:13:49;2.55;;;1.70;;
21771;SDS011;11047;47.904;8.110;2023-04-07T03:16:16;1.95;;;1.50;;
21771;SDS011;11047;47.904;8.110;2023-04-07T03:18:42;1.88;;;1.48;;
21771;SDS011;11047;47.904;8.110;2023-04-07T03:21:09;2.47;;;1.80;;
21771;SDS011;11047;47.904;8.110;2023-04-07T03:23:36;3.55;;;2.08;;
21771;SDS011;11047;47.904;8.110;2023-04-07T03:26:04;4.65;;;2.00;;
21771;SDS011;11047;47.904;8.110;2023-04-07T03:28:31;1.92;;;1.80;;
21771;SDS011;11047;47.904;8.110;2023-04-07T03:30:58;2.83;;;1.80;;
21771;SDS011;11047;47.904;8.110;2023-04-07T03:33:25;1.73;;;1.45;;
21771;SDS011;11047;47.904;8.110;2023-04-07T03:35:52;1.88;;;1.52;;
21771;SDS011;11047;47.904;8.110;2023-04-07T03:38:19;3.42;;;1.83;;
21771;SDS011;11047;47.904;8.110;2023-04-07T03:40:46;2.38;;;1.90;;
21771;SDS011;11047;47.904;8.110;2023-04-07T03:43:14;2.28;;;1.70;;
21771;SDS011;11047;47.904;8.110;2023-04-07T03:45:41;2.22;;;2.00;;
21771;SDS011;11047;47.904;8.110;2023-04-07T03:48:08;2.35;;;1.58;;
21771;SDS011;11047;47.904;8.110;2023-04-07T03:50:36;2.25;;;1.30;;
21771;SDS011;11047;47.904;8.110;2023-04-07T03:53:03;3.63;;;1.75;;
21771;SDS011;11047;47.904;8.110;2023-04-07T03:55:30;2.90;;;1.80;;
21771;SDS011;11047;47.904;8.110;2023-04-07T03:57:57;1.75;;;1.52;;
21771;SDS011;11047;47.904;8.110;2023-04-07T04:00:25;3.42;;;1.63;;
21771;SDS011;11047;47.904;8.110;2023-04-07T04:02:52;1.98;;;1.77;;
21771;SDS011;11047;47.904;8.110;2023-04-07T04:05:19;2.55;;;1.80;;
21771;SDS011;11047;47.904;8.110;2023-04-07T04:07:46;2.25;;;1.67;;
21771;SDS011;11047;47.904;8.110;2023-04-07T04:10:15;2.80;;;1.70;;
21771;SDS011;11047;47.904;8.110;2023-04-07T04:12:42;1.98;;;1.77;;
21771;SDS011;11047;47.904;8.110;2023-04-07T04:15:09;3.67;;;2.05;;
21771;SDS011;11047;47.904;8.110;2023-04-07T04:17:37;4.15;;;1.73;;
21771;SDS011;11047;47.904;8.110;2023-04-07T04:20:04;2.85;;;1.80;;
21771;SDS011;11047;47.904;8.110;2023-04-07T04:22:32;4.55;;;1.80;;
21771;SDS011;11047;47.904;8.110;2023-04-07T04:24:59;2.72;;;1.83;;
21771;SDS011;11047;47.904;8.110;2023-04-07T04:27:26;3.22;;;2.10;;
21771;SDS011;11047;47.904;8.110;2023-04-07T04:29:53;1.88;;;1.67;;
21771;SDS011;11047;47.904;8.110;2023-04-07T04:32:20;3.78;;;1.60;;
21771;SDS011;11047;47.904;8.110;2023-04-07T04:34:48;2.33;;;1.75;;
21771;SDS011;11047;47.904;8.110;2023-04-07T04:37:15;2.40;;;1.80;;
21771;SDS011;11047;47.904;8.110;2023-04-07T04:39:42;2.92;;;1.90;;
21771;SDS011;11047;47.904;8.110;2023-04-07T04:42:09;3.05;;;1.80;;
21771;SDS011;11047;47.904;8.110;2023-04-07T04:44:36;1.90;;;1.75;;
21771;SDS011;11047;47.904;8.110;2023-04-07T04:47:03;2.22;;;1.63;;
21771;SDS011;11047;47.904;8.110;2023-04-07T04:49:29;2.15;;;1.58;;
21771;SDS011;11047;47.904;8.110;2023-04-07T04:51:58;2.20;;;1.85;;
21771;SDS011;11047;47.904;8.110;2023-04-07T04:54:24;1.83;;;1.48;;
21771;SDS011;11047;47.904;8.110;2023-04-07T04:56:51;4.65;;;1.65;;
21771;SDS011;11047;47.904;8.110;2023-04-07T04:59:18;2.47;;;1.85;;
21771;SDS011;11047;47.904;8.110;2023-04-07T05:01:46;2.78;;;1.73;;
21771;SDS011;11047;47.904;8.110;2023-04-07T05:04:13;3.13;;;1.92;;
21771;SDS011;11047;47.904;8.110;2023-04-07T05:06:40;2.10;;;1.60;;
21771;SDS011;11047;47.904;8.110;2023-04-07T05:09:08;1.83;;;1.52;;
21771;SDS011;11047;47.904;8.110;2023-04-07T05:11:35;2.13;;;1.70;;
21771;SDS011;11047;47.904;8.110;2023-04-07T05:14:02;1.77;;;1.65;;
21771;SDS011;11047;47.904;8.110;2023-04-07T05:16:29;4.07;;;1.90;;
21771;SDS011;11047;47.904;8.110;2023-04-07T05:18:56;2.25;;;1.77;;
21771;SDS011;11047;47.904;8.110;2023-04-07T05:21:23;2.17;;;1.90;;
21771;SDS011;11047;47.904;8.110;2023-04-07T05:23:51;3.90;;;1.80;;
21771;SDS011;11047;47.904;8.110;2023-04-07T05:26:20;2.25;;;1.55;;
21771;SDS011;11047;47.904;8.110;2023-04-07T05:28:46;1.98;;;1.77;;
21771;SDS011;11047;47.904;8.110;2023-04-07T05:31:13;4.90;;;2.30;;
21771;SDS011;11047;47.904;8.110;2023-04-07T05:33:40;2.55;;;2.00;;
21771;SDS011;11047;47.904;8.110;2023-04-07T05:36:07;2.70;;;2.10;;
21771;SDS011;11047;47.904;8.110;2023-04-07T05:38:34;4.65;;;1.90;;
21771;SDS011;11047;47.904;8.110;2023-04-07T05:41:01;3.53;;;1.70;;
21771;SDS011;11047;47.904;8.110;2023-04-07T05:43:29;7.22;;;2.60;;
21771;SDS011;11047;47.904;8.110;2023-04-07T05:45:56;3.22;;;2.38;;
21771;SDS011;11047;47.904;8.110;2023-04-07T05:48:23;6.80;;;3.35;;
21771;SDS011;11047;47.904;8.110;2023-04-07T05:50:50;7.53;;;4.05;;
21771;SDS011;11047;47.904;8.110;2023-04-07T05:53:17;6.28;;;3.65;;
21771;SDS011;11047;47.904;8.110;2023-04-07T05:55:44;7.70;;;4.13;;
21771;SDS011;11047;47.904;8.110;2023-04-07T05:58:11;6.93;;;3.97;;
21771;SDS011;11047;47.904;8.110;2023-04-07T06:00:40;8.20;;;3.72;;
21771;SDS011;11047;47.904;8.110;2023-04-07T06:03:07;7.68;;;3.80;;
21771;SDS011;11047;47.904;8.110;2023-04-07T06:05:34;7.32;;;3.58;;
21771;SDS011;11047;47.904;8.110;2023-04-07T06:08:01;4.45;;;2.95;;
21771;SDS011;11047;47.904;8.110;2023-04-07T06:10:27;6.00;;;3.08;;
21771;SDS011;11047;47.904;8.110;2023-04-07T06:12:54;2.85;;;2.30;;
21771;SDS011;11047;47.904;8.110;2023-04-07T06:15:21;3.25;;;2.42;;
21771;SDS011;11047;47.904;8.110;2023-04-07T06:17:50;5.50;;;2.90;;
21771;SDS011;11047;47.904;8.110;2023-04-07T06:20:16;2.95;;;2.17;;
21771;SDS011;11047;47.904;8.110;2023-04-07T06:22:45;5.63;;;2.42;;
21771;SDS011;11047;47.904;8.110;2023-04-07T06:25:12;4.70;;;2.83;;
21771;SDS011;11047;47.904;8.110;2023-04-07T06:27:39;2.80;;;2.45;;
21771;SDS011;11047;47.904;8.110;2023-04-07T06:30:06;4.25;;;3.17;;
21771;SDS011;11047;47.904;8.110;2023-04-07T06:32:34;5.78;;;3.95;;
21771;SDS011;11047;47.904;8.110;2023-04-07T06:35:02;5.57;;;3.42;;
21771;SDS011;11047;47.904;8.110;2023-04-07T06:37:30;6.72;;;3.58;;
21771;SDS011;11047;47.904;8.110;2023-04-07T06:39:57;4.47;;;2.83;;
21771;SDS011;11047;47.904;8.110;2023-04-07T06:42:23;5.55;;;3.83;;
21771;SDS011;11047;47.904;8.110;2023-04-07T06:44:51;5.38;;;3.25;;
21771;SDS011;11047;47.904;8.110;2023-04-07T06:47:18;7.25;;;4.00;;
21771;SDS011;11047;47.904;8.110;2023-04-07T06:49:45;5.47;;;3.17;;
21771;SDS011;11047;47.904;8.110;2023-04-07T06:52:13;3.97;;;2.75;;
21771;SDS011;11047;47.904;8.110;2023-04-07T06:54:40;4.90;;;3.47;;
21771;SDS011;11047;47.904;8.110;2023-04-07T06:57:07;3.80;;;2.92;;
21771;SDS011;11047;47.904;8.110;2023-04-07T06:59:36;5.75;;;3.35;;
21771;SDS011;11047;47.904;8.110;2023-04-07T07:02:03;5.10;;;3.38;;
21771;SDS011;11047;47.904;8.110;2023-04-07T07:04:31;3.45;;;3.03;;
21771;SDS011;11047;47.904;8.110;2023-04-07T07:06:58;6.75;;;3.33;;
21771;SDS011;11047;47.904;8.110;2023-04-07T07:09:26;4.65;;;3.08;;
21771;SDS011;11047;47.904;8.110;2023-04-07T07:11:53;4.10;;;3.25;;
21771;SDS011;11047;47.904;8.110;2023-04-07T07:14:20;3.30;;;2.22;;
21771;SDS011;11047;47.904;8.110;2023-04-07T07:16:47;4.53;;;2.78;;
21771;SDS011;11047;47.904;8.110;2023-04-07T07:19:14;6.63;;;3.60;;
21771;SDS011;11047;47.904;8.110;2023-04-07T07:21:40;5.25;;;3.55;;
21771;SDS011;11047;47.904;8.110;2023-04-07T07:24:07;3.20;;;2.70;;
21771;SDS011;11047;47.904;8.110;2023-04-07T07:26:36;7.90;;;3.80;;
21771;SDS011;11047;47.904;8.110;2023-04-07T07:29:02;4.43;;;2.95;;
21771;SDS011;11047;47.904;8.110;2023-04-07T07:31:29;7.82;;;4.35;;
21771;SDS011;11047;47.904;8.110;2023-04-07T07:33:56;3.92;;;3.35;;
21771;SDS011;11047;47.904;8.110;2023-04-07T07:36:23;5.22;;;3.67;;
21771;SDS011;11047;47.904;8.110;2023-04-07T07:38:50;7.90;;;3.03;;
21771;SDS011;11047;47.904;8.110;2023-04-07T07:41:17;5.72;;;3.40;;
21771;SDS011;11047;47.904;8.110;2023-04-07T07:43:46;6.18;;;3.33;;
21771;SDS011;11047;47.904;8.110;2023-04-07T07:46:13;9.73;;;5.55;;
21771;SDS011;11047;47.904;8.110;2023-04-07T07:48:40;5.55;;;3.05;;
21771;SDS011;11047;47.904;8.110;2023-04-07T07:51:07;4.15;;;2.58;;
21771;SDS011;11047;47.904;8.110;2023-04-07T07:53:33;6.82;;;4.75;;
21771;SDS011;11047;47.904;8.110;2023-04-07T07:56:00;12.93;;;8.23;;
21771;SDS011;11047;47.904;8.110;2023-04-07T07:58:27;6.63;;;4.68;;
21771;SDS011;11047;47.904;8.110;2023-04-07T08:00:55;6.53;;;5.10;;
21771;SDS011;11047;47.904;8.110;2023-04-07T08:03:22;7.28;;;5.45;;
21771;SDS011;11047;47.904;8.110;2023-04-07T08:05:49;6.93;;;5.07;;
21771;SDS011;11047;47.904;8.110;2023-04-07T08:08:16;5.38;;;3.78;;
21771;SDS011;11047;47.904;8.110;2023-04-07T08:10:43;11.80;;;8.02;;
21771;SDS011;11047;47.904;8.110;2023-04-07T08:13:10;7.93;;;5.88;;
21771;SDS011;11047;47.904;8.110;2023-04-07T08:15:38;4.55;;;3.33;;
21771;SDS011;11047;47.904;8.110;2023-04-07T08:18:06;10.00;;;6.90;;
21771;SDS011;11047;47.904;8.110;2023-04-07T08:20:33;4.72;;;3.42;;
21771;SDS011;11047;47.904;8.110;2023-04-07T08:23:00;6.82;;;5.28;;
21771;SDS011;11047;47.904;8.110;2023-04-07T08:25:27;5.97;;;3.80;;
21771;SDS011;11047;47.904;8.110;2023-04-07T08:27:54;6.40;;;4.68;;
21771;SDS011;11047;47.904;8.110;2023-04-07T08:30:21;15.73;;;9.60;;
21771;SDS011;11047;47.904;8.110;2023-04-07T08:32:48;6.93;;;4.57;;
21771;SDS011;11047;47.904;8.110;2023-04-07T08:35:17;6.85;;;3.92;;
21771;SDS011;11047;47.904;8.110;2023-04-07T08:37:43;13.90;;;8.38;;
21771;SDS011;11047;47.904;8.110;2023-04-07T08:40:11;10.88;;;5.70;;
21771;SDS011;11047;47.904;8.110;2023-04-07T08:42:39;4.82;;;2.90;;
21771;SDS011;11047;47.904;8.110;2023-04-07T08:45:07;4.72;;;3.08;;
21771;SDS011;11047;47.904;8.110;2023-04-07T08:47:35;4.25;;;3.35;;
21771;SDS011;11047;47.904;8.110;2023-04-07T08:50:02;11.82;;;7.63;;
21771;SDS011;11047;47.904;8.110;2023-04-07T08:52:33;4.30;;;3.45;;
21771;SDS011;11047;47.904;8.110;2023-04-07T08:55:05;4.88;;;3.25;;
21771;SDS011;11047;47.904;8.110;2023-04-07T08:57:37;7.13;;;4.78;;
21771;SDS011;11047;47.904;8.110;2023-04-07T09:00:05;5.40;;;3.42;;
21771;SDS011;11047;47.904;8.110;2023-04-07T09:02:34;6.07;;;4.85;;
21771;SDS011;11047;47.904;8.110;2023-04-07T09:05:02;7.53;;;5.07;;
21771;SDS011;11047;47.904;8.110;2023-04-07T09:07:30;6.78;;;5.13;;
21771;SDS011;11047;47.904;8.110;2023-04-07T09:10:00;11.93;;;6.95;;
21771;SDS011;11047;47.904;8.110;2023-04-07T09:12:27;4.95;;;3.80;;
21771;SDS011;11047;47.904;8.110;2023-04-07T09:14:55;9.25;;;6.05;;
21771;SDS011;11047;47.904;8.110;2023-04-07T09:17:23;9.88;;;7.25;;
21771;SDS011;11047;47.904;8.110;2023-04-07T09:19:50;9.18;;;6.63;;
21771;SDS011;11047;47.904;8.110;2023-04-07T09:22:33;5.93;;;4.45;;
21771;SDS011;11047;47.904;8.110;2023-04-07T09:25:11;6.50;;;5.13;;
21771;SDS011;11047;47.904;8.110;2023-04-07T09:27:40;13.18;;;8.48;;
21771;SDS011;11047;47.904;8.110;2023-04-07T09:30:10;3.28;;;2.80;;
21771;SDS011;11047;47.904;8.110;2023-04-07T09:32:38;7.25;;;5.30;;
21771;SDS011;11047;47.904;8.110;2023-04-07T09:35:06;7.43;;;3.92;;
21771;SDS011;11047;47.904;8.110;2023-04-07T09:37:35;7.22;;;5.38;;
21771;SDS011;11047;47.904;8.110;2023-04-07T09:40:03;5.55;;;4.65;;
21771;SDS011;11047;47.904;8.110;2023-04-07T09:42:30;8.07;;;4.70;;
21771;SDS011;11047;47.904;8.110;2023-04-07T09:45:00;5.88;;;4.15;;
21771;SDS011;11047;47.904;8.110;2023-04-07T09:47:27;8.50;;;5.53;;
21771;SDS011;11047;47.904;8.110;2023-04-07T09:49:56;7.60;;;3.97;;
21771;SDS011;11047;47.904;8.110;2023-04-07T09:55:14;6.75;;;5.00;;
21771;SDS011;11047;47.904;8.110;2023-04-07T09:57:41;6.43;;;4.38;;
21771;SDS011;11047;47.904;8.110;2023-04-07T10:00:10;5.78;;;4.40;;
21771;SDS011;11047;47.904;8.110;2023-04-07T10:02:38;4.05;;;3.25;;
21771;SDS011;11047;47.904;8.110;2023-04-07T10:05:05;7.80;;;4.75;;
21771;SDS011;11047;47.904;8.110;2023-04-07T10:07:33;9.50;;;6.40;;
21771;SDS011;11047;47.904;8.110;2023-04-07T10:10:01;12.15;;;8.45;;
21771;SDS011;11047;47.904;8.110;2023-04-07T10:12:29;5.88;;;4.20;;
21771;SDS011;11047;47.904;8.110;2023-04-07T10:14:58;8.02;;;5.65;;
21771;SDS011;11047;47.904;8.110;2023-04-07T10:17:26;5.40;;;4.68;;
21771;SDS011;11047;47.904;8.110;2023-04-07T10:19:54;11.27;;;8.15;;
21771;SDS011;11047;47.904;8.110;2023-04-07T10:22:24;7.72;;;4.32;;
21771;SDS011;11047;47.904;8.110;2023-04-07T10:24:53;8.18;;;6.03;;
21771;SDS011;11047;47.904;8.110;2023-04-07T10:27:24;7.38;;;5.43;;
21771;SDS011;11047;47.904;8.110;2023-04-07T10:29:57;7.30;;;5.63;;
21771;SDS011;11047;47.904;8.110;2023-04-07T10:32:25;8.38;;;7.35;;
21771;SDS011;11047;47.904;8.110;2023-04-07T10:34:56;6.88;;;3.80;;
21771;SDS011;11047;47.904;8.110;2023-04-07T10:42:53;7.53;;;6.50;;
21771;SDS011;11047;47.904;8.110;2023-04-07T10:51:13;6.47;;;5.20;;
21771;SDS011;11047;47.904;8.110;2023-04-07T10:59:37;9.77;;;7.18;;
21771;SDS011;11047;47.904;8.110;2023-04-07T11:02:29;8.38;;;6.90;;
21771;SDS011;11047;47.904;8.110;2023-04-07T11:04:59;5.32;;;4.20;;
21771;SDS011;11047;47.904;8.110;2023-04-07T11:07:42;4.60;;;4.03;;
21771;SDS011;11047;47.904;8.110;2023-04-07T11:12:39;9.73;;;6.40;;
21771;SDS011;11047;47.904;8.110;2023-04-07T11:15:16;6.00;;;5.25;;
21771;SDS011;11047;47.904;8.110;2023-04-07T11:17:43;5.28;;;4.53;;
21771;SDS011;11047;47.904;8.110;2023-04-07T11:20:11;6.57;;;4.25;;
21771;SDS011;11047;47.904;8.110;2023-04-07T11:22:38;5.40;;;4.57;;
21771;SDS011;11047;47.904;8.110;2023-04-07T11:25:19;6.75;;;5.53;;
21771;SDS011;11047;47.904;8.110;2023-04-07T11:27:47;7.90;;;6.28;;
21771;SDS011;11047;47.904;8.110;2023-04-07T11:30:14;11.48;;;8.10;;
21771;SDS011;11047;47.904;8.110;2023-04-07T11:32:46;10.20;;;8.35;;
21771;SDS011;11047;47.904;8.110;2023-04-07T11:35:16;12.13;;;9.25;;
21771;SDS011;11047;47.904;8.110;2023-04-07T11:37:43;6.97;;;5.53;;
21771;SDS011;11047;47.904;8.110;2023-04-07T11:40:10;6.28;;;4.65;;
21771;SDS011;11047;47.904;8.110;2023-04-07T11:42:40;8.20;;;4.53;;
21771;SDS011;11047;47.904;8.110;2023-04-07T11:45:14;8.23;;;5.45;;
21771;SDS011;11047;47.904;8.110;2023-04-07T11:47:42;5.63;;;5.03;;
21771;SDS011;11047;47.904;8.110;2023-04-07T11:50:10;6.60;;;4.70;;
21771;SDS011;11047;47.904;8.110;2023-04-07T11:52:42;5.15;;;4.65;;
21771;SDS011;11047;47.904;8.110;2023-04-07T11:55:16;5.82;;;5.22;;
21771;SDS011;11047;47.904;8.110;2023-04-07T11:57:45;4.30;;;2.53;;
21771;SDS011;11047;47.904;8.110;2023-04-07T12:00:13;2.90;;;2.60;;
21771;SDS011;11047;47.904;8.110;2023-04-07T12:02:40;3.03;;;2.10;;
21771;SDS011;11047;47.904;8.110;2023-04-07T12:05:07;3.58;;;1.80;;
21771;SDS011;11047;47.904;8.110;2023-04-07T12:07:35;2.03;;;1.70;;
21771;SDS011;11047;47.904;8.110;2023-04-07T12:12:56;2.22;;;1.85;;
21771;SDS011;11047;47.904;8.110;2023-04-07T12:15:23;2.03;;;1.83;;
21771;SDS011;11047;47.904;8.110;2023-04-07T12:17:50;1.88;;;1.70;;
21771;SDS011;11047;47.904;8.110;2023-04-07T12:20:19;2.38;;;1.90;;
21771;SDS011;11047;47.904;8.110;2023-04-07T12:22:46;1.60;;;1.50;;
21771;SDS011;11047;47.904;8.110;2023-04-07T12:25:13;2.92;;;2.10;;
21771;SDS011;11047;47.904;8.110;2023-04-07T12:27:40;2.22;;;1.85;;
21771;SDS011;11047;47.904;8.110;2023-04-07T12:30:09;2.42;;;2.22;;
21771;SDS011;11047;47.904;8.110;2023-04-07T12:32:37;3.78;;;2.10;;
21771;SDS011;11047;47.904;8.110;2023-04-07T12:35:04;2.25;;;1.58;;
21771;SDS011;11047;47.904;8.110;2023-04-07T12:37:32;2.20;;;2.00;;
21771;SDS011;11047;47.904;8.110;2023-04-07T12:39:59;3.15;;;2.10;;
21771;SDS011;11047;47.904;8.110;2023-04-07T12:42:26;2.58;;;2.38;;
21771;SDS011;11047;47.904;8.110;2023-04-07T12:44:53;2.08;;;1.88;;
21771;SDS011;11047;47.904;8.110;2023-04-07T12:47:22;2.33;;;2.13;;
21771;SDS011;11047;47.904;8.110;2023-04-07T12:49:49;8.68;;;4.65;;
21771;SDS011;11047;47.904;8.110;2023-04-07T12:52:17;3.33;;;2.80;;
21771;SDS011;11047;47.904;8.110;2023-04-07T12:54:48;2.95;;;2.60;;
21771;SDS011;11047;47.904;8.110;2023-04-07T12:57:16;4.35;;;3.13;;
21771;SDS011;11047;47.904;8.110;2023-04-07T12:59:44;4.47;;;3.85;;
21771;SDS011;11047;47.904;8.110;2023-04-07T13:02:26;5.05;;;4.07;;
21771;SDS011;11047;47.904;8.110;2023-04-07T13:04:54;6.50;;;5.32;;
21771;SDS011;11047;47.904;8.110;2023-04-07T13:07:22;4.93;;;4.18;;
21771;SDS011;11047;47.904;8.110;2023-04-07T13:09:50;3.25;;;2.92;;
21771;SDS011;11047;47.904;8.110;2023-04-07T13:12:17;7.05;;;5.90;;
21771;SDS011;11047;47.904;8.110;2023-04-07T13:14:45;2.78;;;2.53;;
21771;SDS011;11047;47.904;8.110;2023-04-07T13:17:12;2.53;;;2.28;;
21771;SDS011;11047;47.904;8.110;2023-04-07T13:19:43;3.45;;;2.78;;
21771;SDS011;11047;47.904;8.110;2023-04-07T13:22:11;3.65;;;3.13;;
21771;SDS011;11047;47.904;8.110;2023-04-07T13:24:40;4.25;;;3.83;;
21771;SDS011;11047;47.904;8.110;2023-04-07T13:27:10;3.40;;;2.75;;
21771;SDS011;11047;47.904;8.110;2023-04-07T13:29:37;5.25;;;3.65;;
21771;SDS011;11047;47.904;8.110;2023-04-07T13:32:04;5.30;;;3.35;;
21771;SDS011;11047;47.904;8.110;2023-04-07T13:34:33;5.18;;;3.78;;
21771;SDS011;11047;47.904;8.110;2023-04-07T13:37:02;5.30;;;3.97;;
21771;SDS011;11047;47.904;8.110;2023-04-07T13:39:30;5.20;;;4.63;;
21771;SDS011;11047;47.904;8.110;2023-04-07T13:42:03;5.20;;;4.05;;
21771;SDS011;11047;47.904;8.110;2023-04-07T13:44:33;4.97;;;3.35;;
21771;SDS011;11047;47.904;8.110;2023-04-07T13:47:01;6.10;;;5.28;;
21771;SDS011;11047;47.904;8.110;2023-04-07T13:49:29;5.13;;;4.35;;
21771;SDS011;11047;47.904;8.110;2023-04-07T13:51:56;4.38;;;3.05;;
21771;SDS011;11047;47.904;8.110;2023-04-07T13:54:26;5.05;;;3.90;;
21771;SDS011;11047;47.904;8.110;2023-04-07T13:56:55;3.92;;;3.38;;
21771;SDS011;11047;47.904;8.110;2023-04-07T13:59:22;6.35;;;4.80;;
21771;SDS011;11047;47.904;8.110;2023-04-07T14:01:50;7.65;;;6.28;;
21771;SDS011;11047;47.904;8.110;2023-04-07T14:04:18;6.18;;;4.47;;
21771;SDS011;11047;47.904;8.110;2023-04-07T14:06:46;5.32;;;4.68;;
21771;SDS011;11047;47.904;8.110;2023-04-07T14:09:16;2.60;;;2.40;;
21771;SDS011;11047;47.904;8.110;2023-04-07T14:11:45;3.60;;;3.30;;
21771;SDS011;11047;47.904;8.110;2023-04-07T14:14:13;5.07;;;3.25;;
21771;SDS011;11047;47.904;8.110;2023-04-07T14:16:40;4.82;;;4.05;;
21771;SDS011;11047;47.904;8.110;2023-04-07T14:19:08;4.40;;;4.00;;
21771;SDS011;11047;47.904;8.110;2023-04-07T14:21:35;2.72;;;2.53;;
21771;SDS011;11047;47.904;8.110;2023-04-07T14:24:03;6.90;;;5.25;;
21771;SDS011;11047;47.904;8.110;2023-04-07T14:26:32;3.30;;;3.00;;
21771;SDS011;11047;47.904;8.110;2023-04-07T14:29:01;3.28;;;2.97;;
21771;SDS011;11047;47.904;8.110;2023-04-07T14:31:29;5.93;;;4.85;;
21771;SDS011;11047;47.904;8.110;2023-04-07T14:33:58;4.15;;;3.58;;
21771;SDS011;11047;47.904;8.110;2023-04-07T14:36:26;3.40;;;3.10;;
21771;SDS011;11047;47.904;8.110;2023-04-07T14:38:54;5.75;;;4.50;;
21771;SDS011;11047;47.904;8.110;2023-04-07T14:41:21;5.72;;;4.60;;
21771;SDS011;11047;47.904;8.110;2023-04-07T14:43:48;7.28;;;5.50;;
21771;SDS011;11047;47.904;8.110;2023-04-07T14:46:21;5.68;;;5.00;;
21771;SDS011;11047;47.904;8.110;2023-04-07T14:48:49;5.53;;;4.28;;
21771;SDS011;11047;47.904;8.110;2023-04-07T14:51:17;3.72;;;3.38;;
21771;SDS011;11047;47.904;8.110;2023-04-07T14:53:47;4.05;;;3.65;;
21771;SDS011;11047;47.904;8.110;2023-04-07T14:56:21;5.07;;;4.25;;
21771;SDS011;11047;47.904;8.110;2023-04-07T14:58:49;3.13;;;2.83;;
21771;SDS011;11047;47.904;8.110;2023-04-07T15:01:16;4.10;;;3.13;;
21771;SDS011;11047;47.904;8.110;2023-04-07T15:03:46;7.05;;;6.05;;
21771;SDS011;11047;47.904;8.110;2023-04-07T15:06:13;3.90;;;3.50;;
21771;SDS011;11047;47.904;8.110;2023-04-07T15:08:41;3.42;;;3.13;;
21771;SDS011;11047;47.904;8.110;2023-04-07T15:11:08;3.90;;;3.50;;
21771;SDS011;11047;47.904;8.110;2023-04-07T15:13:38;3.92;;;3.58;;
21771;SDS011;11047;47.904;8.110;2023-04-07T15:16:06;3.78;;;3.22;;
21771;SDS011;11047;47.904;8.110;2023-04-07T15:18:38;9.18;;;6.78;;
21771;SDS011;11047;47.904;8.110;2023-04-07T15:21:08;7.20;;;5.45;;